createdAt,value
2019-06-26T00:00:58.088Z,0.00
2019-06-26T00:01:58.060Z,0.00
2019-06-26T00:02:58.061Z,0.00
2019-06-26T00:03:58.049Z,0.00
2019-06-26T00:04:58.169Z,0.00
2019-06-26T00:05:58.029Z,0.00
2019-06-26T00:06:58.019Z,0.00
2019-06-26T00:07:57.994Z,0.00
2019-06-26T00:08:57.978Z,0.00
2019-06-26T00:09:57.986Z,0.00
2019-06-26T00:10:57.983Z,0.00
2019-06-26T00:11:57.969Z,0.00
2019-06-26T00:12:57.954Z,0.00
2019-06-26T00:13:57.934Z,0.00
2019-06-26T00:14:57.931Z,0.00
2019-06-26T00:15:57.907Z,0.00
2019-06-26T00:16:57.916Z,0.00
2019-06-26T00:17:57.886Z,0.00
2019-06-26T00:18:57.877Z,0.00
2019-06-26T00:19:57.882Z,0.00
2019-06-26T00:20:57.868Z,0.00
2019-06-26T00:21:57.842Z,0.00
2019-06-26T00:22:57.845Z,0.00
2019-06-26T00:23:57.829Z,0.00
2019-06-26T00:24:57.815Z,0.00
2019-06-26T00:25:57.824Z,0.00
2019-06-26T00:26:57.807Z,0.00
2019-06-26T00:27:57.788Z,0.00
2019-06-26T00:28:57.770Z,0.00
2019-06-26T00:29:57.756Z,0.00
2019-06-26T00:30:57.787Z,0.00
2019-06-26T00:31:57.739Z,0.00
2019-06-26T00:32:57.723Z,0.00
2019-06-26T00:33:57.709Z,0.00
2019-06-26T00:34:57.709Z,0.00
2019-06-26T00:35:57.738Z,0.00
2019-06-26T00:36:57.689Z,0.00
2019-06-26T00:37:57.681Z,0.00
2019-06-26T00:38:57.703Z,0.00
2019-06-26T00:39:57.653Z,0.00
2019-06-26T00:40:57.656Z,0.00
2019-06-26T00:41:57.625Z,0.00
2019-06-26T00:42:57.629Z,0.00
2019-06-26T00:43:57.625Z,0.00
2019-06-26T00:44:57.596Z,0.00
2019-06-26T00:45:57.631Z,0.00
2019-06-26T00:46:57.584Z,0.00
2019-06-26T00:47:57.563Z,0.00
2019-06-26T00:48:57.561Z,0.00
2019-06-26T00:49:57.555Z,0.00
2019-06-26T00:50:57.557Z,0.00
2019-06-26T00:51:57.542Z,0.00
2019-06-26T00:52:57.584Z,0.00
2019-06-26T00:53:57.505Z,0.00
2019-06-26T00:54:57.509Z,0.00
2019-06-26T00:55:57.498Z,0.00
2019-06-26T00:56:57.477Z,0.00
2019-06-26T00:57:57.510Z,0.00
2019-06-26T00:58:57.459Z,0.00
2019-06-26T00:59:57.444Z,0.00
2019-06-26T01:00:57.452Z,0.00
2019-06-26T01:01:57.451Z,0.00
2019-06-26T01:02:57.401Z,0.00
2019-06-26T01:03:57.500Z,0.00
2019-06-26T01:04:57.407Z,0.00
2019-06-26T01:05:57.380Z,0.00
2019-06-26T01:06:57.373Z,0.00
2019-06-26T01:07:57.397Z,0.00
2019-06-26T01:08:57.338Z,0.00
2019-06-26T01:09:57.360Z,0.00
2019-06-26T01:10:57.342Z,0.00
2019-06-26T01:11:57.324Z,0.00
2019-06-26T01:12:57.314Z,0.00
2019-06-26T01:13:58.447Z,0.00
2019-06-26T01:14:57.288Z,0.00
2019-06-26T01:15:57.293Z,0.00
2019-06-26T01:16:57.262Z,0.00
2019-06-26T01:17:57.260Z,0.00
2019-06-26T01:18:57.285Z,0.00
2019-06-26T01:19:57.217Z,0.00
2019-06-26T01:20:57.222Z,0.00
2019-06-26T01:21:57.222Z,0.00
2019-06-26T01:22:57.217Z,0.00
2019-06-26T01:23:57.187Z,0.00
2019-06-26T01:24:57.201Z,0.00
2019-06-26T01:25:57.165Z,0.00
2019-06-26T01:26:57.157Z,0.00
2019-06-26T01:27:57.177Z,0.00
2019-06-26T01:28:57.137Z,0.00
2019-06-26T01:29:57.143Z,0.00
2019-06-26T01:30:57.131Z,0.00
2019-06-26T01:31:57.094Z,0.00
2019-06-26T01:32:57.088Z,0.00
2019-06-26T01:33:57.090Z,0.00
2019-06-26T01:34:57.075Z,0.00
2019-06-26T01:35:57.065Z,0.00
2019-06-26T01:36:57.064Z,0.00
2019-06-26T01:37:57.038Z,0.00
2019-06-26T01:38:57.041Z,0.00
2019-06-26T01:39:57.035Z,0.00
2019-06-26T01:40:57.006Z,0.00
2019-06-26T01:41:56.997Z,0.00
2019-06-26T01:42:57.033Z,0.00
2019-06-26T01:43:56.994Z,0.00
2019-06-26T01:44:56.958Z,0.00
2019-06-26T01:45:56.982Z,0.00
2019-06-26T01:46:56.958Z,0.00
2019-06-26T01:47:56.933Z,0.00
2019-06-26T01:48:56.926Z,0.00
2019-06-26T01:49:56.900Z,0.00
2019-06-26T01:50:56.950Z,0.00
2019-06-26T01:51:56.910Z,0.00
2019-06-26T01:52:56.873Z,0.00
2019-06-26T01:53:56.858Z,0.00
2019-06-26T01:54:56.861Z,0.00
2019-06-26T01:55:56.837Z,0.00
2019-06-26T01:56:56.831Z,0.00
2019-06-26T01:57:56.866Z,0.00
2019-06-26T01:58:56.824Z,0.00
2019-06-26T01:59:56.797Z,0.00
2019-06-26T02:00:56.786Z,0.00
2019-06-26T02:01:56.800Z,0.00
2019-06-26T02:02:56.787Z,0.00
2019-06-26T02:03:56.749Z,0.00
2019-06-26T02:04:56.761Z,0.00
2019-06-26T02:05:56.740Z,0.00
2019-06-26T02:06:56.778Z,0.00
2019-06-26T02:07:56.704Z,0.00
2019-06-26T02:08:56.704Z,0.00
2019-06-26T02:09:56.698Z,0.00
2019-06-26T02:10:56.680Z,0.00
2019-06-26T02:11:57.540Z,0.00
2019-06-26T02:12:56.656Z,0.00
2019-06-26T02:13:56.646Z,0.00
2019-06-26T02:14:56.636Z,0.00
2019-06-26T02:15:56.625Z,0.00
2019-06-26T02:16:56.618Z,0.00
2019-06-26T02:17:56.644Z,0.00
2019-06-26T02:18:56.596Z,0.00
2019-06-26T02:19:56.601Z,0.00
2019-06-26T02:20:56.574Z,0.00
2019-06-26T02:21:56.596Z,0.00
2019-06-26T02:22:56.556Z,0.00
2019-06-26T02:23:56.542Z,0.00
2019-06-26T02:24:56.544Z,0.00
2019-06-26T02:25:56.524Z,0.00
2019-06-26T02:26:56.526Z,0.00
2019-06-26T02:27:56.537Z,0.00
2019-06-26T02:28:56.500Z,0.00
2019-06-26T02:29:56.482Z,0.00
2019-06-26T02:30:56.689Z,0.00
2019-06-26T02:31:56.516Z,0.00
2019-06-26T02:32:56.463Z,0.00
2019-06-26T02:33:56.436Z,0.00
2019-06-26T02:34:56.431Z,0.00
2019-06-26T02:35:56.425Z,4.00
2019-06-26T02:36:56.413Z,4.00
2019-06-26T02:37:56.413Z,4.00
2019-06-26T02:38:56.390Z,0.00
2019-06-26T02:39:56.387Z,0.00
2019-06-26T02:40:56.372Z,4.00
2019-06-26T02:41:56.398Z,4.00
2019-06-26T02:42:56.348Z,4.00
2019-06-26T02:43:56.339Z,4.00
2019-06-26T02:44:56.316Z,8.00
2019-06-26T02:45:56.317Z,4.00
2019-06-26T02:47:17.247Z,8.00
2019-06-26T02:47:57.283Z,8.00
2019-06-26T02:48:56.291Z,8.00
2019-06-26T02:49:56.295Z,12.00
2019-06-26T02:50:56.254Z,12.00
2019-06-26T02:51:56.277Z,12.00
2019-06-26T02:52:56.248Z,16.00
2019-06-26T02:53:56.220Z,16.00
2019-06-26T02:54:56.258Z,20.00
2019-06-26T02:55:56.199Z,24.00
2019-06-26T02:56:56.188Z,24.00
2019-06-26T02:57:56.186Z,24.00
2019-06-26T02:58:56.177Z,32.00
2019-06-26T02:59:56.190Z,32.00
2019-06-26T03:00:56.147Z,36.00
2019-06-26T03:01:56.139Z,40.00
2019-06-26T03:02:56.133Z,44.00
2019-06-26T03:03:56.233Z,48.00
2019-06-26T03:04:56.130Z,52.00
2019-06-26T03:05:56.095Z,56.00
2019-06-26T03:06:56.123Z,64.00
2019-06-26T03:07:56.097Z,68.00
2019-06-26T03:08:56.062Z,72.00
2019-06-26T03:09:56.057Z,80.00
2019-06-26T03:10:56.036Z,88.00
2019-06-26T03:11:56.033Z,92.00
2019-06-26T03:12:56.026Z,104.00
2019-06-26T03:13:56.010Z,112.00
2019-06-26T03:15:08.124Z,120.00
2019-06-26T03:15:56.997Z,128.00
2019-06-26T03:16:55.986Z,136.00
2019-06-26T03:17:56.035Z,144.00
2019-06-26T03:18:56.027Z,156.00
2019-06-26T03:19:55.957Z,164.00
2019-06-26T03:20:55.961Z,176.00
2019-06-26T03:21:55.926Z,188.00
2019-06-26T03:22:55.939Z,200.00
2019-06-26T03:23:55.902Z,212.00
2019-06-26T03:24:55.909Z,224.00
2019-06-26T03:25:55.877Z,236.00
2019-06-26T03:26:55.865Z,248.00
2019-06-26T03:27:55.869Z,264.00
2019-06-26T03:28:55.906Z,280.00
2019-06-26T03:29:55.832Z,296.00
2019-06-26T03:30:55.820Z,312.00
2019-06-26T03:31:55.818Z,328.00
2019-06-26T03:32:55.817Z,340.00
2019-06-26T03:33:55.795Z,360.00
2019-06-26T03:34:56.014Z,376.00
2019-06-26T03:35:55.819Z,396.00
2019-06-26T03:36:55.757Z,416.00
2019-06-26T03:37:55.774Z,436.00
2019-06-26T03:38:55.762Z,456.00
2019-06-26T03:39:55.733Z,476.00
2019-06-26T03:40:55.712Z,492.00
2019-06-26T03:41:55.719Z,508.00
2019-06-26T03:42:55.711Z,528.00
2019-06-26T03:43:55.723Z,548.00
2019-06-26T03:44:55.677Z,572.00
2019-06-26T03:45:55.721Z,596.00
2019-06-26T03:46:55.652Z,620.00
2019-06-26T03:47:55.655Z,644.00
2019-06-26T03:48:55.631Z,668.00
2019-06-26T03:49:55.637Z,692.00
2019-06-26T03:50:55.612Z,712.00
2019-06-26T03:51:55.616Z,740.00
2019-06-26T03:52:55.612Z,772.00
2019-06-26T03:53:55.586Z,804.00
2019-06-26T03:54:55.566Z,844.00
2019-06-26T03:55:55.602Z,880.00
2019-06-26T03:56:55.552Z,916.00
2019-06-26T03:57:55.548Z,944.00
2019-06-26T03:58:55.532Z,976.00
2019-06-26T03:59:55.663Z,1008.00
2019-06-26T04:00:55.513Z,1040.00
2019-06-26T04:01:55.525Z,1076.00
2019-06-26T04:02:55.492Z,1112.00
2019-06-26T04:03:57.459Z,1144.00
2019-06-26T04:04:55.468Z,1180.00
2019-06-26T04:05:55.502Z,1212.00
2019-06-26T04:06:55.470Z,1244.00
2019-06-26T04:07:55.431Z,1272.00
2019-06-26T04:08:55.454Z,1304.00
2019-06-26T04:09:55.427Z,1344.00
2019-06-26T04:10:55.403Z,1376.00
2019-06-26T04:11:55.395Z,1408.00
2019-06-26T04:12:55.391Z,1440.00
2019-06-26T04:13:55.461Z,1472.00
2019-06-26T04:14:55.353Z,1504.00
2019-06-26T04:15:55.343Z,1540.00
2019-06-26T04:16:55.335Z,1572.00
2019-06-26T04:17:55.329Z,1612.00
2019-06-26T04:18:55.328Z,1648.00
2019-06-26T04:19:55.296Z,1680.00
2019-06-26T04:20:55.301Z,1712.00
2019-06-26T04:21:55.313Z,1748.00
2019-06-26T04:22:55.268Z,1784.00
2019-06-26T04:23:55.273Z,1816.00
2019-06-26T04:24:55.257Z,1852.00
2019-06-26T04:25:55.238Z,1888.00
2019-06-26T04:26:55.226Z,1920.00
2019-06-26T04:27:55.254Z,1956.00
2019-06-26T04:28:55.209Z,1996.00
2019-06-26T04:29:55.213Z,2024.00
2019-06-26T04:30:55.195Z,2052.00
2019-06-26T04:31:55.181Z,2092.00
2019-06-26T04:32:55.176Z,2124.00
2019-06-26T04:33:55.145Z,2152.00
2019-06-26T04:34:55.154Z,2172.00
2019-06-26T04:35:55.148Z,2196.00
2019-06-26T04:36:55.115Z,2224.00
2019-06-26T04:37:55.133Z,2260.00
2019-06-26T04:38:55.164Z,2300.00
2019-06-26T04:39:55.101Z,2340.00
2019-06-26T04:40:55.072Z,2380.00
2019-06-26T04:41:55.059Z,2400.00
2019-06-26T04:42:55.049Z,2428.00
2019-06-26T04:43:55.065Z,2464.00
2019-06-26T04:44:55.064Z,2496.00
2019-06-26T04:45:58.519Z,2512.00
2019-06-26T04:46:55.054Z,2528.00
2019-06-26T04:47:55.050Z,2556.00
2019-06-26T04:48:55.038Z,2604.00
2019-06-26T04:49:55.029Z,2632.00
2019-06-26T04:50:55.065Z,2656.00
2019-06-26T04:51:55.005Z,2660.00
2019-06-26T04:52:54.953Z,2688.00
2019-06-26T04:53:55.822Z,2708.00
2019-06-26T04:54:54.944Z,2736.00
2019-06-26T04:55:54.968Z,2756.00
2019-06-26T04:56:54.988Z,2768.00
2019-06-26T04:57:54.972Z,2780.00
2019-06-26T04:58:54.966Z,2820.00
2019-06-26T04:59:54.894Z,2852.00
2019-06-26T05:00:54.902Z,2880.00
2019-06-26T05:01:54.907Z,2908.00
2019-06-26T05:02:54.932Z,2944.00
2019-06-26T05:03:54.911Z,2968.00
2019-06-26T05:04:54.824Z,2992.00
2019-06-26T05:05:54.874Z,3024.00
2019-06-26T05:06:54.841Z,3060.00
2019-06-26T05:07:54.827Z,3088.00
2019-06-26T05:08:54.853Z,3120.00
2019-06-26T05:09:54.899Z,3124.00
2019-06-26T05:10:54.785Z,3140.00
2019-06-26T05:11:54.769Z,3164.00
2019-06-26T05:12:54.761Z,3192.00
2019-06-26T05:13:54.775Z,3220.00
2019-06-26T05:14:54.837Z,3232.00
2019-06-26T05:15:55.583Z,3252.00
2019-06-26T05:16:54.738Z,3276.00
2019-06-26T05:17:54.867Z,3320.00
2019-06-26T05:18:54.702Z,3352.00
2019-06-26T05:19:54.669Z,3368.00
2019-06-26T05:20:55.486Z,3388.00
2019-06-26T05:21:54.738Z,3408.00
2019-06-26T05:22:54.664Z,3428.00
2019-06-26T05:23:54.674Z,3440.00
2019-06-26T05:24:54.647Z,3472.00
2019-06-26T05:25:54.646Z,3492.00
2019-06-26T05:26:54.602Z,3512.00
2019-06-26T05:27:54.625Z,3516.00
2019-06-26T05:28:54.610Z,3532.00
2019-06-26T05:29:54.644Z,3556.00
2019-06-26T05:30:54.593Z,3588.00
2019-06-26T05:31:54.629Z,3612.00
2019-06-26T05:32:54.513Z,3632.00
2019-06-26T05:33:54.569Z,3648.00
2019-06-26T05:34:55.513Z,3668.00
2019-06-26T05:35:54.521Z,3688.00
2019-06-26T05:36:54.510Z,3720.00
2019-06-26T05:37:54.579Z,3760.00
2019-06-26T05:38:55.480Z,3784.00
2019-06-26T05:39:54.873Z,3824.00
2019-06-26T05:40:54.565Z,3844.00
2019-06-26T05:41:54.474Z,3876.00
2019-06-26T05:42:54.488Z,3892.00
2019-06-26T05:43:55.449Z,3888.00
2019-06-26T05:44:54.430Z,3912.00
2019-06-26T05:45:54.439Z,3912.00
2019-06-26T05:46:54.481Z,3964.00
2019-06-26T05:47:54.389Z,3988.00
2019-06-26T05:48:54.431Z,4020.00
2019-06-26T05:49:54.423Z,4040.00
2019-06-26T05:50:54.362Z,4048.00
2019-06-26T05:51:54.998Z,4052.00
2019-06-26T05:52:54.367Z,4064.00
2019-06-26T05:53:54.319Z,4120.00
2019-06-26T05:54:54.326Z,4088.00
2019-06-26T05:55:54.329Z,4112.00
2019-06-26T05:56:54.287Z,4120.00
2019-06-26T05:57:54.281Z,4132.00
2019-06-26T05:58:54.556Z,4148.00
2019-06-26T05:59:54.285Z,4156.00
2019-06-26T06:00:54.273Z,4180.00
2019-06-26T06:01:54.998Z,4204.00
2019-06-26T06:02:54.954Z,4204.00
2019-06-26T06:03:54.402Z,4192.00
2019-06-26T06:04:54.344Z,4180.00
2019-06-26T06:05:54.209Z,4168.00
2019-06-26T06:06:54.189Z,4152.00
2019-06-26T06:07:54.204Z,4156.00
2019-06-26T06:08:54.170Z,4160.00
2019-06-26T06:09:54.188Z,4144.00
2019-06-26T06:10:57.180Z,4140.00
2019-06-26T06:11:54.134Z,4128.00
2019-06-26T06:12:54.091Z,4116.00
2019-06-26T06:13:54.165Z,4084.00
2019-06-26T06:14:54.124Z,4052.00
2019-06-26T06:15:54.127Z,4040.00
2019-06-26T06:16:54.263Z,4068.00
2019-06-26T06:17:54.094Z,4100.00
2019-06-26T06:18:54.029Z,4120.00
2019-06-26T06:19:54.106Z,4144.00
2019-06-26T06:20:54.062Z,4180.00
2019-06-26T06:21:54.015Z,4192.00
2019-06-26T06:22:54.119Z,4192.00
2019-06-26T06:23:54.018Z,4184.00
2019-06-26T06:24:54.058Z,4196.00
2019-06-26T06:25:54.972Z,4208.00
2019-06-26T06:26:54.068Z,4204.00
2019-06-26T06:27:53.942Z,4204.00
2019-06-26T06:28:53.941Z,4200.00
2019-06-26T06:29:53.959Z,4204.00
2019-06-26T06:30:53.947Z,4224.00
2019-06-26T06:31:53.916Z,4232.00
2019-06-26T06:32:53.969Z,4248.00
2019-06-26T06:33:53.939Z,4264.00
2019-06-26T06:34:53.892Z,4288.00
2019-06-26T06:35:53.887Z,4304.00
2019-06-26T06:36:53.905Z,4332.00
2019-06-26T06:37:53.858Z,4376.00
2019-06-26T06:38:54.461Z,4388.00
2019-06-26T06:39:53.832Z,4364.00
2019-06-26T06:40:53.854Z,4376.00
2019-06-26T06:41:53.824Z,4408.00
2019-06-26T06:42:53.963Z,4400.00
2019-06-26T06:43:54.490Z,4368.00
2019-06-26T06:44:54.801Z,4360.00
2019-06-26T06:45:53.816Z,4376.00
2019-06-26T06:47:03.526Z,4384.00
2019-06-26T06:47:54.758Z,4392.00
2019-06-26T06:48:53.769Z,4400.00
2019-06-26T06:49:53.754Z,4380.00
2019-06-26T06:50:53.769Z,4352.00
2019-06-26T06:51:53.750Z,4368.00
2019-06-26T06:52:53.686Z,4380.00
2019-06-26T06:53:53.674Z,4352.00
2019-06-26T06:54:53.696Z,4308.00
2019-06-26T06:55:53.640Z,4276.00
2019-06-26T06:56:53.675Z,4212.00
2019-06-26T06:57:53.643Z,4208.00
2019-06-26T06:58:53.606Z,4208.00
2019-06-26T06:59:53.590Z,4216.00
2019-06-26T07:00:53.617Z,4220.00
2019-06-26T07:01:53.570Z,4232.00
2019-06-26T07:02:53.562Z,4228.00
2019-06-26T07:03:53.584Z,4224.00
2019-06-26T07:04:53.543Z,4232.00
2019-06-26T07:05:53.528Z,4224.00
2019-06-26T07:06:53.751Z,4212.00
2019-06-26T07:07:53.521Z,4144.00
2019-06-26T07:08:53.502Z,4152.00
2019-06-26T07:09:53.503Z,4140.00
2019-06-26T07:10:53.481Z,4144.00
2019-06-26T07:11:53.494Z,4168.00
2019-06-26T07:12:53.466Z,4132.00
2019-06-26T07:13:53.448Z,4132.00
2019-06-26T07:14:53.437Z,4216.00
2019-06-26T07:15:53.446Z,4244.00
2019-06-26T07:16:53.422Z,4200.00
2019-06-26T07:17:53.411Z,4176.00
2019-06-26T07:18:53.463Z,4212.00
2019-06-26T07:19:53.390Z,4220.00
2019-06-26T07:20:53.418Z,4164.00
2019-06-26T07:21:53.386Z,4176.00
2019-06-26T07:22:53.382Z,4128.00
2019-06-26T07:23:53.345Z,4080.00
2019-06-26T07:24:53.347Z,4148.00
2019-06-26T07:25:53.310Z,4172.00
2019-06-26T07:26:53.348Z,4152.00
2019-06-26T07:27:53.314Z,4168.00
2019-06-26T07:28:53.284Z,4252.00
2019-06-26T07:29:53.282Z,4276.00
2019-06-26T07:30:53.263Z,4236.00
2019-06-26T07:31:53.251Z,4192.00
2019-06-26T07:32:53.252Z,4180.00
2019-06-26T07:33:55.588Z,4272.00
2019-06-26T07:34:53.228Z,4364.00
2019-06-26T07:35:53.215Z,4420.00
2019-06-26T07:36:53.211Z,4436.00
2019-06-26T07:37:53.245Z,4344.00
2019-06-26T07:38:53.204Z,4400.00
2019-06-26T07:39:57.560Z,4408.00
2019-06-26T07:40:54.169Z,4348.00
2019-06-26T07:41:53.161Z,4248.00
2019-06-26T07:42:53.157Z,4152.00
2019-06-26T07:43:53.154Z,4084.00
2019-06-26T07:44:53.127Z,4136.00
2019-06-26T07:45:53.105Z,4100.00
2019-06-26T07:46:53.096Z,4136.00
2019-06-26T07:47:53.100Z,4192.00
2019-06-26T07:48:53.070Z,4192.00
2019-06-26T07:49:53.102Z,4200.00
2019-06-26T07:50:53.071Z,4208.00
2019-06-26T07:51:53.061Z,4168.00
2019-06-26T07:52:53.060Z,4108.00
2019-06-26T07:53:53.044Z,4132.00
2019-06-26T07:54:53.059Z,4168.00
2019-06-26T07:55:53.024Z,4212.00
2019-06-26T07:56:52.989Z,4232.00
2019-06-26T07:57:52.991Z,4220.00
2019-06-26T07:58:52.975Z,4176.00
2019-06-26T07:59:52.979Z,4160.00
2019-06-26T08:00:53.030Z,4104.00
2019-06-26T08:01:52.971Z,4072.00
2019-06-26T08:02:52.942Z,4084.00
2019-06-26T08:03:52.947Z,4008.00
2019-06-26T08:04:52.901Z,3992.00
2019-06-26T08:05:52.905Z,3988.00
2019-06-26T08:06:52.926Z,4004.00
2019-06-26T08:07:52.913Z,4020.00
2019-06-26T08:08:52.879Z,4024.00
2019-06-26T08:09:53.162Z,4012.00
2019-06-26T08:10:52.848Z,4008.00
2019-06-26T08:11:52.839Z,3996.00
2019-06-26T08:12:52.811Z,3984.00
2019-06-26T08:13:52.816Z,3908.00
2019-06-26T08:14:52.806Z,3904.00
2019-06-26T08:15:52.824Z,3892.00
2019-06-26T08:16:52.776Z,3864.00
2019-06-26T08:18:00.425Z,3856.00
2019-06-26T08:18:53.765Z,3876.00
2019-06-26T08:19:52.768Z,3916.00
2019-06-26T08:21:10.962Z,3912.00
2019-06-26T08:21:53.843Z,3872.00
2019-06-26T08:22:52.715Z,3888.00
2019-06-26T08:23:52.716Z,3880.00
2019-06-26T08:24:52.691Z,3816.00
2019-06-26T08:25:52.691Z,3796.00
2019-06-26T08:26:52.675Z,3740.00
2019-06-26T08:27:52.665Z,3700.00
2019-06-26T08:28:52.659Z,3672.00
2019-06-26T08:29:52.637Z,3672.00
2019-06-26T08:30:52.873Z,3664.00
2019-06-26T08:31:52.626Z,3636.00
2019-06-26T08:32:52.602Z,3616.00
2019-06-26T08:33:52.611Z,3616.00
2019-06-26T08:34:52.610Z,3612.00
2019-06-26T08:35:52.586Z,3580.00
2019-06-26T08:36:52.586Z,3580.00
2019-06-26T08:38:09.025Z,3596.00
2019-06-26T08:38:53.553Z,3540.00
2019-06-26T08:39:52.533Z,3544.00
2019-06-26T08:40:52.580Z,3544.00
2019-06-26T08:41:52.513Z,3572.00
2019-06-26T08:42:52.515Z,3620.00
2019-06-26T08:43:52.507Z,3620.00
2019-06-26T08:44:52.632Z,3596.00
2019-06-26T08:45:52.472Z,3576.00
2019-06-26T08:46:52.475Z,3552.00
2019-06-26T08:47:52.480Z,3544.00
2019-06-26T08:48:52.468Z,3544.00
2019-06-26T08:49:52.418Z,3544.00
2019-06-26T08:50:52.433Z,3624.00
2019-06-26T08:51:52.602Z,3684.00
2019-06-26T08:52:52.395Z,3700.00
2019-06-26T08:53:52.408Z,3652.00
2019-06-26T08:54:52.373Z,3648.00
2019-06-26T08:55:52.365Z,3652.00
2019-06-26T08:56:52.364Z,3664.00
2019-06-26T08:57:52.422Z,3732.00
2019-06-26T08:58:52.326Z,3868.00
2019-06-26T08:59:52.346Z,3924.00
2019-06-26T09:00:52.346Z,3908.00
2019-06-26T09:01:52.335Z,3804.00
2019-06-26T09:02:52.324Z,3908.00
2019-06-26T09:03:52.288Z,3864.00
2019-06-26T09:04:52.298Z,3816.00
2019-06-26T09:05:52.258Z,3948.00
2019-06-26T09:06:52.247Z,3936.00
2019-06-26T09:07:52.244Z,3896.00
2019-06-26T09:08:52.255Z,3876.00
2019-06-26T09:09:52.224Z,3756.00
2019-06-26T09:10:52.231Z,3820.00
2019-06-26T09:11:52.205Z,3816.00
2019-06-26T09:12:52.263Z,3780.00
2019-06-26T09:13:52.176Z,3728.00
2019-06-26T09:14:52.181Z,3792.00
2019-06-26T09:15:52.164Z,3744.00
2019-06-26T09:16:52.167Z,3696.00
2019-06-26T09:17:52.142Z,3668.00
2019-06-26T09:18:52.146Z,3652.00
2019-06-26T09:19:52.113Z,3588.00
2019-06-26T09:20:52.143Z,3588.00
2019-06-26T09:21:52.098Z,3616.00
2019-06-26T09:22:52.109Z,3556.00
2019-06-26T09:23:52.069Z,3556.00
2019-06-26T09:24:52.156Z,3548.00
2019-06-26T09:25:52.112Z,3560.00
2019-06-26T09:26:52.067Z,3544.00
2019-06-26T09:27:52.052Z,3536.00
2019-06-26T09:28:52.022Z,3540.00
2019-06-26T09:29:52.016Z,3544.00
2019-06-26T09:30:52.046Z,3580.00
2019-06-26T09:31:52.007Z,3544.00
2019-06-26T09:32:52.001Z,3552.00
2019-06-26T09:33:52.203Z,3472.00
2019-06-26T09:34:52.086Z,3456.00
2019-06-26T09:35:51.955Z,3520.00
2019-06-26T09:36:51.943Z,3556.00
2019-06-26T09:37:51.988Z,3480.00
2019-06-26T09:38:51.921Z,3508.00
2019-06-26T09:39:52.052Z,3516.00
2019-06-26T09:40:51.915Z,3544.00
2019-06-26T09:41:51.944Z,3540.00
2019-06-26T09:42:51.903Z,3544.00
2019-06-26T09:43:51.880Z,3536.00
2019-06-26T09:44:51.862Z,3548.00
2019-06-26T09:45:51.856Z,3536.00
2019-06-26T09:46:51.856Z,3568.00
2019-06-26T09:47:51.838Z,3568.00
2019-06-26T09:48:53.504Z,3600.00
2019-06-26T09:49:51.855Z,3548.00
2019-06-26T09:50:51.796Z,3532.00
2019-06-26T09:51:51.793Z,3544.00
2019-06-26T09:52:51.771Z,3572.00
2019-06-26T09:53:51.759Z,3552.00
2019-06-26T09:54:51.959Z,3552.00
2019-06-26T09:55:51.781Z,3556.00
2019-06-26T09:56:51.786Z,3560.00
2019-06-26T09:57:51.718Z,3568.00
2019-06-26T09:58:51.744Z,3560.00
2019-06-26T09:59:51.821Z,3540.00
2019-06-26T10:00:51.702Z,3512.00
2019-06-26T10:01:51.782Z,3484.00
2019-06-26T10:02:51.680Z,3472.00
2019-06-26T10:03:51.660Z,3456.00
2019-06-26T10:04:51.653Z,3448.00
2019-06-26T10:05:51.670Z,3428.00
2019-06-26T10:06:51.684Z,3424.00
2019-06-26T10:07:51.629Z,3444.00
2019-06-26T10:08:54.055Z,3464.00
2019-06-26T10:09:51.620Z,3520.00
2019-06-26T10:10:51.609Z,3552.00
2019-06-26T10:11:51.603Z,3620.00
2019-06-26T10:12:51.585Z,3676.00
2019-06-26T10:13:51.559Z,3684.00
2019-06-26T10:14:51.545Z,3660.00
2019-06-26T10:15:51.764Z,3660.00
2019-06-26T10:16:51.518Z,3676.00
2019-06-26T10:17:51.529Z,3720.00
2019-06-26T10:19:05.718Z,3748.00
2019-06-26T10:19:54.122Z,3784.00
2019-06-26T10:20:51.479Z,3772.00
2019-06-26T10:21:51.498Z,3796.00
2019-06-26T10:22:51.456Z,3816.00
2019-06-26T10:23:51.444Z,3868.00
2019-06-26T10:24:51.452Z,3872.00
2019-06-26T10:25:51.469Z,3872.00
2019-06-26T10:26:51.436Z,3864.00
2019-06-26T10:27:51.413Z,3900.00
2019-06-26T10:28:51.396Z,3960.00
2019-06-26T10:29:51.397Z,3948.00
2019-06-26T10:30:51.372Z,3916.00
2019-06-26T10:31:51.385Z,3924.00
2019-06-26T10:32:51.362Z,3964.00
2019-06-26T10:33:51.364Z,3996.00
2019-06-26T10:34:51.346Z,3976.00
2019-06-26T10:35:51.342Z,4008.00
2019-06-26T10:36:51.420Z,3964.00
2019-06-26T10:37:51.412Z,3940.00
2019-06-26T10:38:51.356Z,3996.00
2019-06-26T10:39:51.300Z,3980.00
2019-06-26T10:40:51.345Z,4020.00
2019-06-26T10:41:54.763Z,3968.00
2019-06-26T10:42:51.412Z,3892.00
2019-06-26T10:43:51.258Z,3908.00
2019-06-26T10:44:51.276Z,3880.00
2019-06-26T10:45:51.219Z,3836.00
2019-06-26T10:46:51.294Z,3756.00
2019-06-26T10:47:51.224Z,3772.00
2019-06-26T10:48:51.210Z,3728.00
2019-06-26T10:49:51.211Z,3716.00
2019-06-26T10:50:58.085Z,3684.00
2019-06-26T10:51:52.229Z,3668.00
2019-06-26T10:52:51.176Z,3632.00
2019-06-26T10:53:51.167Z,3604.00
2019-06-26T10:54:51.147Z,3568.00
2019-06-26T10:55:51.279Z,3532.00
2019-06-26T10:56:51.139Z,3528.00
2019-06-26T10:57:51.372Z,3524.00
2019-06-26T10:58:51.108Z,3500.00
2019-06-26T10:59:55.343Z,3584.00
2019-06-26T11:00:51.081Z,3656.00
2019-06-26T11:01:51.065Z,3704.00
2019-06-26T11:02:51.055Z,3744.00
2019-06-26T11:03:51.046Z,3792.00
2019-06-26T11:04:51.055Z,3868.00
2019-06-26T11:05:51.037Z,3932.00
2019-06-26T11:06:51.005Z,3964.00
2019-06-26T11:07:51.054Z,3928.00
2019-06-26T11:08:51.082Z,3956.00
2019-06-26T11:09:50.988Z,4032.00
2019-06-26T11:10:50.962Z,4052.00
2019-06-26T11:11:50.984Z,4060.00
2019-06-26T11:12:50.951Z,4048.00
2019-06-26T11:13:50.994Z,4028.00
2019-06-26T11:14:50.958Z,4036.00
2019-06-26T11:15:50.910Z,4096.00
2019-06-26T11:16:50.936Z,4144.00
2019-06-26T11:17:50.893Z,4200.00
2019-06-26T11:18:50.920Z,4188.00
2019-06-26T11:19:50.891Z,4200.00
2019-06-26T11:20:50.874Z,4288.00
2019-06-26T11:21:50.894Z,4412.00
2019-06-26T11:22:50.891Z,4484.00
2019-06-26T11:23:50.839Z,4592.00
2019-06-26T11:24:50.895Z,4748.00
2019-06-26T11:25:50.874Z,4868.00
2019-06-26T11:26:50.798Z,4976.00
2019-06-26T11:27:50.833Z,5024.00
2019-06-26T11:28:50.897Z,5024.00
2019-06-26T11:29:50.792Z,5036.00
2019-06-26T11:30:50.763Z,5056.00
2019-06-26T11:31:50.788Z,5092.00
2019-06-26T11:32:50.769Z,5132.00
2019-06-26T11:33:50.735Z,5032.00
2019-06-26T11:34:50.726Z,4976.00
2019-06-26T11:35:50.836Z,5000.00
2019-06-26T11:37:03.263Z,4956.00
2019-06-26T11:37:51.711Z,4944.00
2019-06-26T11:38:50.713Z,5064.00
2019-06-26T11:39:50.906Z,5016.00
2019-06-26T11:40:50.693Z,5016.00
2019-06-26T11:41:50.656Z,4956.00
2019-06-26T11:42:50.636Z,4880.00
2019-06-26T11:43:50.654Z,4888.00
2019-06-26T11:44:50.619Z,4876.00
2019-06-26T11:45:50.706Z,4768.00
2019-06-26T11:46:50.625Z,4756.00
2019-06-26T11:47:50.587Z,4820.00
2019-06-26T11:48:50.624Z,4892.00
2019-06-26T11:49:59.915Z,4844.00
2019-06-26T11:50:51.555Z,4796.00
2019-06-26T11:51:50.558Z,4800.00
2019-06-26T11:52:50.536Z,4808.00
2019-06-26T11:53:50.550Z,4788.00
2019-06-26T11:55:02.220Z,4720.00
2019-06-26T11:55:51.515Z,4720.00
2019-06-26T11:56:50.562Z,4768.00
2019-06-26T11:57:50.505Z,4768.00
2019-06-26T11:58:50.507Z,4732.00
2019-06-26T11:59:50.517Z,4772.00
2019-06-26T12:00:50.478Z,4812.00
2019-06-26T12:01:50.456Z,4864.00
2019-06-26T12:02:50.494Z,4832.00
2019-06-26T12:03:50.440Z,4964.00
2019-06-26T12:04:50.431Z,5020.00
2019-06-26T12:05:50.443Z,5036.00
2019-06-26T12:06:50.437Z,4980.00
2019-06-26T12:07:50.396Z,5028.00
2019-06-26T12:08:50.538Z,5092.00
2019-06-26T12:09:50.483Z,5096.00
2019-06-26T12:10:50.398Z,5036.00
2019-06-26T12:11:50.421Z,5044.00
2019-06-26T12:12:50.374Z,4920.00
2019-06-26T12:13:50.377Z,4920.00
2019-06-26T12:14:50.316Z,5028.00
2019-06-26T12:15:50.328Z,5076.00
2019-06-26T12:16:50.319Z,5224.00
2019-06-26T12:17:50.309Z,5276.00
2019-06-26T12:18:50.311Z,5320.00
2019-06-26T12:19:50.337Z,5372.00
2019-06-26T12:20:50.256Z,5428.00
2019-06-26T12:21:50.332Z,5564.00
2019-06-26T12:22:50.282Z,5660.00
2019-06-26T12:23:50.255Z,5668.00